首页
METAR-TAF:

METAR-TAF

机场 :

麦库姆, 密西西比州, 美国

纬度: 31-10-42N, 经度: 090-28-19W, 海拔: 126米

当前天气观测

该预报发布于20分钟前的13:53 UTC
风速5节,风向北转西北
温度 11°C
湿度 87%
气压 1011 hPa
能見度: 2.8公里
多云层高于600英尺
阴天层高于1000英尺
雨, 轻雾

METAR: KMCB 291353Z AUTO 34005KT 1 3/4SM RA BR BKN006 OVC010 11/09 A2984 RMK AO2 CIG 004V010 SLP102 P0012 T01060094

时间: 08:13 (14:13 UTC)

预报

该预报发布于2小时和46分钟前的11:27 UTC
预报有效从29日的 12点(UTC)到 30日的 12点(UTC)
风速4节,风向
能見度: 6.4公里
多云层高于2800英尺
多云层高于3500英尺
阴天层高于6000英尺
大雨, 轻雾
从 29日的 1400点(UTC)
风速4节,风向多变
能見度: 8.0公里
散云层高于300英尺
阴天层高于2500英尺
轻雾, 附近有阵雨
从 29日的 1800点(UTC)
风速3节,风向多变
能見度: 10公里
散云层高于800英尺
阴天层高于1000英尺
从 29日的 2200点(UTC)
风速5节,风向北转东北
能見度: 10公里
散云层高于1000英尺
多云层高于2000英尺
从 30日的 0600点(UTC)
风速4节,风向多变
能見度: 10公里
散云层高于800英尺
多云层高于2500英尺

TAF: KMCB 291127Z 2912/3012 10004KT 4SM +RA BR BKN028 BKN035 OVC060 FM291400 VRB04KT 5SM BR VCSH SCT003 OVC025 FM291800 VRB03KT P6SM SCT008 OVC010 FM292200 02005KT P6SM SCT010 BKN020 FM300600 VRB04KT P6SM SCT008 BKN025

超过4000个机场的气象观测和天气预报(METAR&TAF报告)。

可查询的气象台以黄色和红色小点在地图上表示。

将鼠标移到小点上方,可查看气象台名称。

然后点击查看天气观测和预报。

如需切换地图:点击带黑十字的绿色按钮放大地图;点击带横线的绿色按钮缩小地图;或者点击绿色箭头查看邻近地区的地图。


METAR-TAF: